Time;durP1;ratioP1;P1;durP2;ratioP2;P2;SDS_P1;SDS_P2;PMS_P1;PMS_P2;Temp;Humidity;BMP_temperature;BMP_pressure;BME280_temperature;BME280_humidity;BME280_pressure;Samples;Min_cycle;Max_cycle;Signal;HPM_P1;HPM_P2
2022/01/20 00:00:32;;;;;;;17.15;2.67;;;3.20;99.90;;;;;;4947898;28;20054;-63
2022/01/20 00:03:02;;;;;;;24.77;3.28;;;3.10;99.90;;;;;;4930314;28;20089;-62
2022/01/20 00:27:10;;;;;;;24.90;3.50;;;3.00;99.90;;;;;;4949311;28;20130;-62
2022/01/20 00:37:28;;;;;;;23.42;2.47;;;3.30;99.90;;;;;;4958977;28;20139;-62
2022/01/20 00:39:56;;;;;;;28.10;2.65;;;3.30;99.90;;;;;;4948009;29;20059;-62
2022/01/20 00:42:23;;;;;;;23.08;2.05;;;3.30;99.90;;;;;;4952434;28;20051;-62
2022/01/20 00:44:49;;;;;;;19.00;2.92;;;3.40;99.90;;;;;;4951622;28;20053;-63
2022/01/20 00:47:17;;;;;;;19.65;2.58;;;3.40;99.90;;;;;;4949334;29;20043;-62
2022/01/20 00:49:43;;;;;;;12.85;1.98;;;3.50;99.90;;;;;;4931503;29;20793;-63
2022/01/20 00:52:10;;;;;;;27.13;2.65;;;3.50;99.90;;;;;;4949166;29;20051;-62
2022/01/20 00:54:36;;;;;;;22.95;2.58;;;3.60;99.90;;;;;;4937527;28;20047;-62
2022/01/20 00:57:02;;;;;;;24.05;2.88;;;3.60;99.90;;;;;;4950091;28;20082;-62
2022/01/20 00:59:29;;;;;;;26.95;2.92;;;3.60;99.90;;;;;;4931205;29;20043;-62
2022/01/20 01:02:05;;;;;;;19.52;3.20;;;3.70;99.90;;;;;;4947344;28;20062;-62
2022/01/20 01:04:31;;;;;;;44.53;6.35;;;3.70;99.90;;;;;;4947965;28;20047;-63
2022/01/20 01:09:41;;;;;;;45.20;8.57;;;3.70;99.90;;;;;;4948366;29;20050;-63
2022/01/20 01:12:12;;;;;;;34.83;6.07;;;3.80;99.90;;;;;;4949959;28;20062;-62
2022/01/20 01:14:43;;;;;;;23.92;4.75;;;3.90;99.90;;;;;;4948039;29;20039;-63
2022/01/20 01:24:46;;;;;;;7.25;1.00;;;3.60;99.90;;;;;;4947838;29;20047;-62
2022/01/20 01:27:13;;;;;;;11.80;1.25;;;3.50;99.90;;;;;;4948521;29;20585;-63
2022/01/20 01:32:15;;;;;;;18.45;7.65;;;3.40;99.90;;;;;;4948928;28;20055;-62
2022/01/20 01:34:47;;;;;;;15.27;5.30;;;3.40;99.90;;;;;;4930644;29;20569;-62
2022/01/20 01:39:57;;;;;;;22.60;3.78;;;3.50;99.90;;;;;;4941069;28;20047;-62
2022/01/20 01:42:29;;;;;;;23.73;6.90;;;3.50;99.90;;;;;;4954188;28;20437;-62
2022/01/20 01:44:57;;;;;;;28.83;8.57;;;3.50;99.90;;;;;;4946726;29;20386;-63
2022/01/20 01:47:22;;;;;;;43.05;11.73;;;3.60;99.90;;;;;;4930670;29;20059;-62
2022/01/20 01:49:48;;;;;;;41.17;9.23;;;3.70;99.90;;;;;;4930766;29;20047;-62
2022/01/20 01:52:14;;;;;;;31.10;6.13;;;3.80;99.90;;;;;;4949398;28;20561;-62
2022/01/20 01:54:39;;;;;;;26.00;4.40;;;3.80;99.90;;;;;;4947356;28;20039;-63
2022/01/20 01:57:09;;;;;;;21.73;2.65;;;3.90;99.90;;;;;;4927962;29;20039;-63
2022/01/20 01:59:35;;;;;;;29.42;4.35;;;4.00;99.90;;;;;;4928735;29;20522;-62
2022/01/20 02:02:01;;;;;;;31.23;4.57;;;4.10;99.90;;;;;;4947331;28;20090;-63
2022/01/20 02:04:27;;;;;;;23.77;2.83;;;4.10;99.90;;;;;;4948638;28;20078;-62
2022/01/20 02:17:53;;;;;;;45.92;5.38;;;3.90;99.90;;;;;;4951181;28;20062;-62
2022/01/20 02:20:19;;;;;;;38.83;4.97;;;3.40;99.90;;;;;;4934654;29;20086;-62
2022/01/20 02:22:45;;;;;;;26.65;4.63;;;3.40;99.90;;;;;;4951549;28;20078;-62
2022/01/20 02:25:37;;;;;;;32.42;4.13;;;3.30;99.90;;;;;;4952786;28;20043;-63
2022/01/20 02:28:08;;;;;;;28.88;3.78;;;3.30;99.90;;;;;;4948921;28;20055;-62
2022/01/20 02:30:35;;;;;;;42.45;6.00;;;3.30;99.90;;;;;;4951023;28;20090;-62
2022/01/20 02:33:08;;;;;;;29.15;5.18;;;3.40;99.90;;;;;;4951339;28;20056;-62
2022/01/20 02:35:43;;;;;;;26.95;4.82;;;3.60;99.90;;;;;;4952783;28;20105;-62
2022/01/20 02:38:14;;;;;;;23.42;4.28;;;3.70;99.90;;;;;;4926818;29;20060;-62
2022/01/20 02:45:55;;;;;;;38.13;4.82;;;3.50;99.90;;;;;;4939339;29;20055;-62
2022/01/20 02:48:21;;;;;;;33.33;4.85;;;3.50;99.90;;;;;;4934143;29;20086;-62
2022/01/20 02:50:47;;;;;;;33.17;4.25;;;3.50;99.90;;;;;;4931777;29;20094;-63
2022/01/20 02:53:12;;;;;;;29.83;4.65;;;3.50;99.90;;;;;;4932333;29;20083;-62
2022/01/20 02:55:38;;;;;;;37.75;5.68;;;3.50;99.90;;;;;;4932508;29;20048;-62
2022/01/20 02:58:06;;;;;;;38.63;5.88;;;3.60;99.90;;;;;;4914526;29;20114;-62
2022/01/20 03:00:33;;;;;;;53.95;9.02;;;3.80;99.90;;;;;;4931582;29;20483;-63
2022/01/20 03:03:00;;;;;;;54.92;8.40;;;4.00;99.90;;;;;;4913947;29;20036;-62
2022/01/20 03:05:26;;;;;;;39.90;6.47;;;4.20;99.90;;;;;;4931995;29;20032;-62
2022/01/20 03:07:52;;;;;;;46.40;7.88;;;4.10;99.90;;;;;;4921370;29;20056;-62
2022/01/20 03:10:18;;;;;;;33.90;5.78;;;4.10;99.90;;;;;;4914933;29;20054;-62
2022/01/20 03:12:44;;;;;;;46.60;7.65;;;4.10;99.90;;;;;;4913835;29;20055;-62
2022/01/20 03:15:11;;;;;;;32.83;6.80;;;4.00;99.90;;;;;;4931952;29;20396;-62
2022/01/20 03:17:36;;;;;;;32.53;5.78;;;4.00;99.90;;;;;;4930506;29;20048;-62
2022/01/20 03:20:04;;;;;;;34.60;5.25;;;4.00;99.90;;;;;;4931411;29;20498;-62
2022/01/20 03:22:30;;;;;;;45.78;6.00;;;4.00;99.90;;;;;;4931397;29;20035;-62
2022/01/20 03:24:57;;;;;;;36.83;6.13;;;4.00;99.90;;;;;;4931074;29;20074;-62
2022/01/20 03:27:23;;;;;;;36.50;5.45;;;4.00;99.90;;;;;;4915275;29;20111;-63
2022/01/20 03:29:49;;;;;;;37.38;7.53;;;4.20;99.90;;;;;;4930936;29;20134;-62
2022/01/20 03:32:15;;;;;;;37.17;6.78;;;4.20;99.90;;;;;;4914222;29;20063;-63
2022/01/20 03:34:41;;;;;;;30.05;6.00;;;4.20;99.90;;;;;;4930898;29;20051;-62
2022/01/20 03:37:07;;;;;;;30.17;7.43;;;4.20;99.90;;;;;;4914074;29;20055;-62
2022/01/20 03:39:32;;;;;;;33.50;5.35;;;4.30;99.90;;;;;;4933303;29;20138;-62
2022/01/20 03:41:58;;;;;;;29.80;6.65;;;4.20;99.90;;;;;;4949792;29;20047;-62
2022/01/20 03:44:24;;;;;;;23.75;5.40;;;4.30;99.90;;;;;;4950693;29;20027;-62
2022/01/20 03:46:50;;;;;;;25.80;4.80;;;4.30;99.90;;;;;;4949676;29;20521;-62
2022/01/20 03:49:36;;;;;;;34.65;4.63;;;4.30;99.90;;;;;;4952723;28;20043;-62
2022/01/20 03:52:03;;;;;;;32.45;5.55;;;4.30;99.90;;;;;;4949528;29;20406;-62
2022/01/20 03:54:29;;;;;;;22.40;4.80;;;4.30;99.90;;;;;;4916971;29;20043;-62
2022/01/20 03:56:54;;;;;;;26.83;4.28;;;4.20;99.90;;;;;;4932176;29;20664;-62
2022/01/20 03:59:20;;;;;;;28.88;5.47;;;4.20;99.90;;;;;;4941449;28;20043;-62
2022/01/20 04:01:46;;;;;;;25.52;4.65;;;4.10;99.90;;;;;;4954433;28;20047;-62
2022/01/20 04:04:11;;;;;;;24.67;4.80;;;4.10;99.90;;;;;;4950059;29;20098;-62
2022/01/20 04:06:37;;;;;;;31.67;5.38;;;4.10;99.90;;;;;;4932940;29;20545;-62
2022/01/20 04:09:04;;;;;;;35.25;5.50;;;4.00;99.90;;;;;;4917036;28;21577;-62
2022/01/20 04:11:30;;;;;;;38.92;6.45;;;3.90;99.90;;;;;;4949979;29;20055;-62
2022/01/20 04:13:57;;;;;;;28.98;5.38;;;3.90;99.90;;;;;;4949571;29;20050;-62
2022/01/20 04:16:33;;;;;;;23.23;3.53;;;3.80;99.90;;;;;;4949653;29;20035;-62
2022/01/20 04:19:00;;;;;;;22.83;3.83;;;3.80;99.90;;;;;;4949555;29;20333;-62
2022/01/20 04:21:27;;;;;;;20.25;3.53;;;3.90;99.90;;;;;;4950523;28;20462;-62
2022/01/20 04:23:55;;;;;;;34.47;6.07;;;3.80;99.90;;;;;;4931895;29;20118;-62
2022/01/20 04:26:21;;;;;;;29.95;4.55;;;3.90;99.90;;;;;;4949708;29;20401;-62
2022/01/20 04:28:48;;;;;;;24.08;5.15;;;4.00;99.90;;;;;;4949083;29;20110;-62
2022/01/20 04:31:14;;;;;;;31.55;4.63;;;3.90;99.90;;;;;;4940689;28;20118;-62
2022/01/20 04:33:40;;;;;;;23.27;4.50;;;4.10;99.90;;;;;;4949938;29;20074;-62
2022/01/20 04:36:07;;;;;;;40.08;7.03;;;4.20;99.90;;;;;;4949328;29;20086;-62
2022/01/20 04:38:33;;;;;;;45.45;8.30;;;4.20;99.90;;;;;;4931334;29;20483;-62
2022/01/20 04:40:59;;;;;;;38.47;7.05;;;3.30;99.90;;;;;;4949892;28;20719;-62
2022/01/20 04:43:26;;;;;;;12.15;2.83;;;2.70;99.90;;;;;;4916100;29;20043;-62
2022/01/20 04:46:01;;;;;;;12.40;2.88;;;2.40;99.90;;;;;;4948914;29;20094;-63
2022/01/20 04:59:28;;;;;;;34.92;4.55;;;2.60;99.90;;;;;;4930195;29;20050;-62
2022/01/20 05:01:54;;;;;;;29.85;5.22;;;2.20;99.90;;;;;;4939974;29;20440;-63
2022/01/20 05:04:22;;;;;;;26.15;4.65;;;2.00;99.90;;;;;;4938642;29;20044;-63
2022/01/20 05:06:49;;;;;;;35.13;4.90;;;1.90;99.90;;;;;;4940997;29;20383;-62
2022/01/20 05:09:19;;;;;;;30.50;4.90;;;1.90;99.90;;;;;;4939420;29;20044;-63
2022/01/20 05:11:50;;;;;;;25.10;5.28;;;2.10;99.90;;;;;;4947395;29;20518;-62
2022/01/20 05:14:16;;;;;;;27.80;4.82;;;2.20;99.90;;;;;;4948359;29;20126;-62
2022/01/20 05:16:41;;;;;;;29.27;3.70;;;2.20;99.90;;;;;;4931296;29;20167;-63
2022/01/20 05:19:07;;;;;;;31.65;4.97;;;2.20;99.90;;;;;;4948102;29;20043;-62
2022/01/20 05:21:33;;;;;;;35.65;5.00;;;2.20;99.90;;;;;;4931302;29;20058;-63
2022/01/20 05:23:59;;;;;;;37.55;5.93;;;2.30;99.90;;;;;;4930308;29;20062;-63
2022/01/20 05:26:25;;;;;;;37.28;6.07;;;2.40;99.90;;;;;;4948383;29;20046;-63
2022/01/20 05:28:50;;;;;;;38.33;6.22;;;2.50;99.90;;;;;;4947980;29;20050;-62
2022/01/20 05:31:16;;;;;;;41.60;6.07;;;2.50;99.90;;;;;;4915183;29;20417;-63
2022/01/20 05:33:42;;;;;;;31.63;6.72;;;2.60;99.90;;;;;;4930997;29;20191;-62
2022/01/20 05:36:07;;;;;;;32.53;5.32;;;2.70;99.90;;;;;;4930421;29;20323;-62
2022/01/20 05:38:33;;;;;;;44.67;6.40;;;2.30;99.90;;;;;;4947931;29;20043;-62
2022/01/20 05:40:59;;;;;;;55.72;7.45;;;2.10;99.90;;;;;;4930763;29;20089;-63
2022/01/20 05:43:25;;;;;;;48.42;6.57;;;2.00;99.90;;;;;;4947577;29;20047;-63
2022/01/20 05:45:52;;;;;;;45.75;7.60;;;2.00;99.90;;;;;;4930761;29;20066;-63
2022/01/20 05:48:27;;;;;;;36.08;4.47;;;2.10;99.90;;;;;;4927131;29;20053;-62
2022/01/20 05:50:53;;;;;;;37.60;5.45;;;2.10;99.90;;;;;;4947050;28;20396;-62
2022/01/20 05:53:19;;;;;;;31.33;4.50;;;2.20;99.90;;;;;;4947924;29;20105;-62
2022/01/20 05:55:45;;;;;;;39.38;4.65;;;2.30;99.90;;;;;;4947915;29;20031;-63
2022/01/20 05:58:10;;;;;;;33.45;5.05;;;2.40;99.90;;;;;;4947749;29;20629;-63
2022/01/20 06:00:37;;;;;;;50.13;7.07;;;2.40;99.90;;;;;;4948125;29;20047;-62
2022/01/20 06:05:51;;;;;;;40.97;6.30;;;2.50;99.90;;;;;;4948026;29;20061;-63
2022/01/20 06:08:17;;;;;;;40.97;5.53;;;2.60;99.90;;;;;;4914762;29;20142;-62
2022/01/20 06:10:43;;;;;;;35.85;6.30;;;2.70;99.90;;;;;;4930515;29;20561;-62
2022/01/20 06:13:09;;;;;;;45.15;5.90;;;2.90;99.90;;;;;;4947367;29;20126;-63
2022/01/20 06:15:35;;;;;;;29.52;5.20;;;2.90;99.90;;;;;;4947931;29;20122;-63
2022/01/20 06:18:01;;;;;;;24.63;4.53;;;2.90;99.90;;;;;;4947086;29;20055;-62
2022/01/20 06:20:27;;;;;;;30.02;5.43;;;3.00;99.90;;;;;;4948065;29;20044;-62
2022/01/20 06:22:54;;;;;;;25.63;4.82;;;3.00;99.90;;;;;;4943261;29;20556;-62
2022/01/20 06:25:20;;;;;;;32.80;6.10;;;3.20;99.90;;;;;;4930200;29;20066;-62
2022/01/20 06:27:46;;;;;;;32.72;4.72;;;3.20;99.90;;;;;;4948031;29;20077;-62
2022/01/20 06:30:12;;;;;;;35.42;5.43;;;3.30;99.90;;;;;;4947678;29;20399;-62
2022/01/20 06:32:38;;;;;;;34.28;4.68;;;3.30;99.90;;;;;;4947694;29;20043;-62
2022/01/20 06:35:04;;;;;;;31.55;4.70;;;3.20;99.90;;;;;;4926677;29;20059;-62
2022/01/20 06:37:30;;;;;;;29.67;5.03;;;3.10;99.90;;;;;;4922683;29;20051;-63
2022/01/20 06:39:56;;;;;;;32.05;4.28;;;3.10;99.90;;;;;;4929745;29;20425;-62
2022/01/20 06:42:22;;;;;;;30.63;4.93;;;3.10;99.90;;;;;;4930463;29;20094;-62
2022/01/20 06:44:51;;;;;;;25.42;3.90;;;3.10;99.90;;;;;;4934294;29;20047;-62
2022/01/20 06:47:16;;;;;;;35.47;5.32;;;3.20;99.90;;;;;;4923585;29;20121;-62
2022/01/20 06:49:42;;;;;;;31.05;4.72;;;3.30;99.90;;;;;;4948103;29;20573;-62
2022/01/20 06:52:08;;;;;;;29.50;5.10;;;3.40;99.90;;;;;;4947079;29;20553;-62
2022/01/20 06:54:34;;;;;;;31.55;5.13;;;3.50;99.90;;;;;;4947590;29;20047;-62
2022/01/20 06:57:00;;;;;;;27.10;5.18;;;3.50;99.90;;;;;;4933799;29;20062;-62
2022/01/20 06:59:26;;;;;;;38.75;6.75;;;3.50;99.90;;;;;;4947751;29;20039;-62
2022/01/20 07:01:52;;;;;;;50.22;5.38;;;3.30;99.90;;;;;;4926240;29;20048;-62
2022/01/20 07:04:18;;;;;;;22.67;4.53;;;3.00;99.90;;;;;;4950679;29;20047;-62
2022/01/20 07:06:44;;;;;;;16.27;3.40;;;2.70;99.90;;;;;;4924311;29;20082;-63
2022/01/20 07:09:11;;;;;;;12.98;3.05;;;2.50;99.90;;;;;;4932967;29;20096;-62
2022/01/20 07:11:39;;;;;;;16.05;2.60;;;2.40;99.90;;;;;;4951219;29;20055;-62
2022/01/20 07:14:06;;;;;;;20.77;3.55;;;2.30;99.90;;;;;;4950264;29;20506;-62
2022/01/20 07:16:32;;;;;;;19.67;3.45;;;2.30;99.90;;;;;;4940509;29;20089;-62
2022/01/20 07:18:59;;;;;;;26.55;3.85;;;2.40;99.90;;;;;;4946077;29;20075;-62
2022/01/20 07:21:25;;;;;;;29.45;5.45;;;2.50;99.90;;;;;;4929184;29;20050;-63
2022/01/20 07:23:51;;;;;;;26.95;4.95;;;2.80;99.90;;;;;;4941770;29;20055;-62
2022/01/20 07:26:17;;;;;;;29.23;4.78;;;2.90;99.90;;;;;;4945119;29;20058;-62
2022/01/20 07:28:43;;;;;;;31.67;4.65;;;3.00;99.90;;;;;;4938574;29;20125;-62
2022/01/20 07:31:09;;;;;;;26.85;4.65;;;3.10;99.90;;;;;;4947479;29;20047;-62
2022/01/20 07:33:35;;;;;;;24.70;4.22;;;3.10;99.90;;;;;;4941251;29;20046;-63
2022/01/20 07:36:01;;;;;;;30.50;5.18;;;3.20;99.90;;;;;;4943671;29;20036;-62
2022/01/20 07:38:27;;;;;;;29.52;4.53;;;3.30;99.90;;;;;;4951184;28;20104;-62
2022/01/20 07:40:53;;;;;;;28.83;4.90;;;3.30;99.90;;;;;;4950728;28;20054;-62
2022/01/20 07:43:19;;;;;;;22.90;3.45;;;3.40;99.90;;;;;;4933915;29;20068;-62
2022/01/20 07:45:45;;;;;;;29.88;4.50;;;3.40;99.90;;;;;;4956771;28;20146;-62
2022/01/20 07:48:11;;;;;;;30.98;5.28;;;3.40;99.90;;;;;;4952824;28;20066;-62
2022/01/20 07:50:37;;;;;;;35.33;5.85;;;3.40;99.90;;;;;;4952709;28;20175;-62
2022/01/20 07:53:03;;;;;;;32.25;5.95;;;3.30;99.90;;;;;;4949916;29;20138;-62
2022/01/20 07:55:29;;;;;;;33.08;5.88;;;3.40;99.90;;;;;;4947808;29;20051;-62
2022/01/20 07:57:55;;;;;;;19.75;3.38;;;3.40;99.90;;;;;;4950186;29;20105;-63
2022/01/20 08:00:21;;;;;;;43.08;5.20;;;3.40;99.90;;;;;;4931849;29;20035;-62
2022/01/20 08:02:47;;;;;;;28.85;5.88;;;3.40;99.90;;;;;;4951319;28;20197;-62
2022/01/20 08:05:13;;;;;;;33.25;5.78;;;3.40;99.90;;;;;;4946173;29;20043;-62
2022/01/20 08:07:40;;;;;;;25.88;4.10;;;3.40;99.90;;;;;;4931631;29;20047;-63
2022/01/20 08:10:07;;;;;;;41.03;5.53;;;3.20;99.90;;;;;;4932057;29;20066;-62
2022/01/20 08:12:32;;;;;;;29.75;3.85;;;3.20;99.90;;;;;;4938161;29;20546;-62
2022/01/20 08:14:59;;;;;;;44.33;9.80;;;3.20;99.90;;;;;;4954616;28;20186;-62
2022/01/20 08:17:26;;;;;;;45.58;7.70;;;3.20;99.90;;;;;;4933664;29;20050;-62
2022/01/20 08:19:52;;;;;;;30.48;4.82;;;3.30;99.90;;;;;;4947780;28;20145;-62
2022/01/20 08:22:18;;;;;;;42.80;5.65;;;3.20;99.90;;;;;;4932242;29;20070;-62
2022/01/20 08:24:49;;;;;;;34.22;4.57;;;3.30;99.90;;;;;;4937361;29;20074;-63
2022/01/20 08:27:17;;;;;;;39.08;6.03;;;3.30;99.90;;;;;;4939484;28;20055;-62
2022/01/20 08:29:43;;;;;;;28.33;5.20;;;3.40;99.90;;;;;;4941139;28;20376;-62
2022/01/20 08:32:09;;;;;;;29.92;4.47;;;3.50;99.90;;;;;;4942105;29;20043;-62
2022/01/20 08:34:35;;;;;;;32.65;5.10;;;3.60;99.90;;;;;;4931017;29;20050;-62
2022/01/20 08:37:00;;;;;;;30.27;5.88;;;3.70;99.90;;;;;;4945792;28;20082;-63
2022/01/20 08:42:03;;;;;;;26.88;4.47;;;3.80;99.90;;;;;;4934077;28;20077;-62
2022/01/20 08:44:29;;;;;;;24.85;3.72;;;3.80;99.90;;;;;;4943230;28;20046;-62
2022/01/20 08:46:57;;;;;;;33.80;4.85;;;3.80;99.90;;;;;;4939958;28;20051;-62
2022/01/20 08:49:23;;;;;;;25.95;4.55;;;3.80;99.90;;;;;;4934948;29;20051;-62
2022/01/20 08:51:50;;;;;;;23.00;4.07;;;3.90;99.90;;;;;;4949110;28;20522;-62
2022/01/20 08:54:16;;;;;;;37.17;5.40;;;3.90;99.90;;;;;;4947244;28;20039;-62
2022/01/20 08:56:42;;;;;;;32.25;4.88;;;3.90;99.90;;;;;;4934520;29;20051;-62
2022/01/20 08:59:08;;;;;;;31.67;4.78;;;3.80;99.90;;;;;;4946712;28;20035;-63
2022/01/20 09:01:36;;;;;;;30.48;4.80;;;3.80;99.90;;;;;;4927824;29;20050;-62
2022/01/20 09:04:02;;;;;;;39.35;4.85;;;3.80;99.90;;;;;;4941027;28;20032;-62
2022/01/20 09:06:28;;;;;;;21.80;4.05;;;3.80;99.90;;;;;;4943629;29;20461;-62
2022/01/20 09:08:54;;;;;;;25.23;4.28;;;3.80;99.90;;;;;;4926594;29;20064;-62
2022/01/20 09:11:23;;;;;;;22.50;4.47;;;3.80;99.90;;;;;;4922348;29;20051;-62
2022/01/20 09:16:36;;;;;;;25.55;4.65;;;3.90;99.90;;;;;;4947595;29;20103;-62
2022/01/20 09:19:02;;;;;;;30.33;5.10;;;4.00;99.90;;;;;;4947881;29;20050;-62
2022/01/20 09:21:29;;;;;;;31.13;4.80;;;4.10;99.90;;;;;;4947067;29;20043;-62
2022/01/20 09:23:55;;;;;;;23.35;4.78;;;4.20;99.90;;;;;;4930751;29;20210;-63
2022/01/20 09:26:22;;;;;;;25.27;4.97;;;4.40;99.90;;;;;;4914972;29;20114;-62
2022/01/20 09:28:48;;;;;;;15.90;4.03;;;4.50;99.90;;;;;;4931360;29;20064;-63
2022/01/20 09:31:14;;;;;;;20.20;4.05;;;4.40;99.90;;;;;;4946612;29;20047;-62
2022/01/20 09:33:41;;;;;;;33.30;4.80;;;4.10;99.90;;;;;;4930920;29;20114;-63
2022/01/20 09:36:12;;;;;;;24.30;3.85;;;3.80;99.90;;;;;;4948173;29;20050;-64
2022/01/20 09:38:38;;;;;;;26.85;5.25;;;3.60;99.90;;;;;;4915363;29;20055;-63
2022/01/20 09:41:06;;;;;;;21.63;3.92;;;3.20;99.90;;;;;;4947768;29;20086;-63
2022/01/20 09:43:33;;;;;;;27.98;3.55;;;2.80;99.90;;;;;;4946260;28;20043;-63
2022/01/20 09:46:00;;;;;;;17.65;2.55;;;2.70;99.90;;;;;;4947945;29;20444;-63
2022/01/20 09:48:28;;;;;;;19.48;3.70;;;2.70;99.90;;;;;;4946988;29;20596;-63
2022/01/20 09:50:55;;;;;;;25.02;3.67;;;2.80;99.90;;;;;;4948079;29;20046;-63
2022/01/20 09:53:22;;;;;;;23.85;2.88;;;3.00;99.90;;;;;;4946880;29;20454;-63
2022/01/20 09:55:48;;;;;;;30.95;3.90;;;3.20;99.90;;;;;;4927502;29;20054;-63
2022/01/20 09:58:15;;;;;;;17.27;2.85;;;3.30;99.90;;;;;;4947038;29;20509;-63
2022/01/20 10:00:43;;;;;;;14.80;2.95;;;3.40;99.90;;;;;;4946692;28;20065;-63
2022/01/20 10:03:12;;;;;;;19.38;3.63;;;3.50;99.90;;;;;;4929899;29;20039;-63
2022/01/20 10:05:45;;;;;;;29.08;4.60;;;3.60;99.90;;;;;;4947439;29;20043;-63
2022/01/20 10:08:21;;;;;;;26.65;4.78;;;3.80;99.90;;;;;;4934980;29;20502;-63
2022/01/20 10:10:56;;;;;;;30.98;5.10;;;4.10;99.90;;;;;;4945930;28;20163;-63
2022/01/20 10:13:30;;;;;;;24.92;3.63;;;4.40;99.90;;;;;;4929119;29;20051;-63
2022/01/20 10:16:11;;;;;;;33.60;5.28;;;4.40;99.90;;;;;;4943539;29;20046;-63
2022/01/20 10:18:58;;;;;;;29.88;4.68;;;4.20;99.90;;;;;;4946977;29;20050;-63
2022/01/20 10:21:32;;;;;;;34.85;6.05;;;4.00;99.90;;;;;;4929489;29;20486;-63
2022/01/20 10:24:10;;;;;;;31.25;5.45;;;4.10;99.90;;;;;;4947620;29;20039;-63
2022/01/20 10:26:37;;;;;;;33.83;5.63;;;4.20;99.90;;;;;;4947065;29;20538;-63
2022/01/20 10:29:08;;;;;;;24.52;4.70;;;4.30;99.90;;;;;;4930297;29;20055;-63
2022/01/20 10:31:38;;;;;;;27.58;4.32;;;4.30;99.90;;;;;;4944212;28;20062;-63
2022/01/20 10:34:08;;;;;;;31.90;4.35;;;4.30;99.90;;;;;;4947120;29;20056;-63
2022/01/20 10:36:40;;;;;;;26.67;4.28;;;4.40;99.90;;;;;;4929943;29;20050;-63
2022/01/20 10:39:06;;;;;;;20.70;4.13;;;4.50;99.90;;;;;;4949319;28;20122;-63
2022/01/20 10:41:39;;;;;;;24.70;4.97;;;4.50;99.90;;;;;;4949144;29;20047;-63
2022/01/20 10:44:08;;;;;;;22.50;4.03;;;4.50;99.90;;;;;;4933521;29;20441;-63
2022/01/20 10:46:53;;;;;;;31.35;3.78;;;4.60;99.90;;;;;;4944196;29;20055;-63
2022/01/20 10:49:26;;;;;;;25.08;4.82;;;4.80;99.90;;;;;;4940206;29;20115;-63
2022/01/20 10:52:05;;;;;;;26.95;4.45;;;4.90;99.90;;;;;;4933559;29;20494;-63
2022/01/20 10:54:39;;;;;;;24.77;3.95;;;4.40;99.90;;;;;;4949000;29;20255;-63
2022/01/20 10:57:07;;;;;;;22.25;4.45;;;4.30;99.90;;;;;;4938160;29;20040;-63
2022/01/20 10:59:34;;;;;;;20.63;4.07;;;4.30;99.90;;;;;;4945093;29;20049;-63
2022/01/20 11:02:09;;;;;;;19.05;3.47;;;4.20;99.90;;;;;;4945281;29;20147;-63
2022/01/20 11:04:37;;;;;;;18.67;4.25;;;4.20;99.90;;;;;;4949645;29;20057;-63
2022/01/20 11:07:06;;;;;;;13.20;3.20;;;4.10;99.90;;;;;;4947176;29;20406;-63
2022/01/20 11:09:36;;;;;;;14.60;3.03;;;4.00;99.90;;;;;;4949425;28;20110;-63
2022/01/20 11:12:04;;;;;;;15.82;2.55;;;4.10;99.90;;;;;;4933611;29;20048;-63
2022/01/20 11:14:32;;;;;;;29.52;4.68;;;4.20;99.90;;;;;;4939857;29;20118;-63
2022/01/20 11:16:58;;;;;;;25.70;3.70;;;4.20;99.90;;;;;;4934189;29;20036;-63
2022/01/20 11:19:25;;;;;;;21.25;2.70;;;4.30;99.90;;;;;;4937495;29;20065;-63
2022/01/20 11:22:03;;;;;;;20.48;3.08;;;4.30;99.90;;;;;;4950305;29;20133;-62
2022/01/20 11:24:29;;;;;;;15.70;2.97;;;4.40;99.90;;;;;;4929342;29;20047;-63
2022/01/20 11:26:57;;;;;;;23.33;3.28;;;4.50;99.90;;;;;;4932049;29;20047;-63
2022/01/20 11:29:39;;;;;;;16.70;2.28;;;4.50;99.90;;;;;;4937046;29;20047;-63
2022/01/20 11:32:25;;;;;;;26.25;3.53;;;4.70;99.90;;;;;;4947099;29;20390;-64
2022/01/20 11:35:10;;;;;;;17.48;2.30;;;4.70;99.90;;;;;;4947542;29;20371;-63
2022/01/20 11:37:56;;;;;;;13.57;3.28;;;4.70;99.90;;;;;;4930302;29;20059;-63
2022/01/20 11:40:24;;;;;;;14.57;2.70;;;4.60;99.90;;;;;;4944270;29;20047;-63
2022/01/20 11:43:03;;;;;;;6.90;1.90;;;4.60;99.90;;;;;;4944416;29;20130;-63
2022/01/20 11:45:40;;;;;;;10.80;2.70;;;4.50;99.90;;;;;;4934979;29;20048;-63
2022/01/20 11:48:17;;;;;;;19.05;3.55;;;4.50;99.90;;;;;;4928163;29;20063;-63
2022/01/20 11:50:44;;;;;;;23.23;4.05;;;4.60;99.90;;;;;;4916186;29;20044;-63
2022/01/20 11:53:18;;;;;;;17.98;3.42;;;4.70;99.90;;;;;;4923923;29;20102;-63
2022/01/20 11:55:51;;;;;;;26.00;5.20;;;4.80;99.90;;;;;;4913115;29;20059;-63
2022/01/20 11:58:20;;;;;;;23.75;4.28;;;4.90;99.90;;;;;;4928599;29;20121;-63
2022/01/20 12:00:59;;;;;;;22.58;4.35;;;4.80;99.90;;;;;;4928437;29;20518;-63
2022/01/20 12:03:24;;;;;;;26.38;5.03;;;4.80;99.90;;;;;;4927594;29;20414;-63
2022/01/20 12:06:03;;;;;;;26.65;4.07;;;4.70;99.90;;;;;;4930368;29;20047;-63
2022/01/20 12:08:29;;;;;;;21.02;4.35;;;4.60;99.90;;;;;;4918973;29;20055;-63
2022/01/20 12:11:05;;;;;;;25.92;4.55;;;4.50;99.90;;;;;;4923968;29;20566;-63
2022/01/20 12:13:31;;;;;;;30.15;4.93;;;4.60;99.90;;;;;;4931698;29;20117;-63
2022/01/20 12:16:00;;;;;;;25.13;4.75;;;4.70;99.90;;;;;;4934241;29;20454;-63
2022/01/20 12:18:30;;;;;;;26.77;5.57;;;4.80;99.90;;;;;;4941223;29;20043;-63
2022/01/20 12:21:04;;;;;;;34.15;6.22;;;4.90;99.90;;;;;;4914956;29;20151;-63
2022/01/20 12:23:39;;;;;;;23.25;4.97;;;5.10;99.90;;;;;;4914986;29;20504;-63
2022/01/20 12:26:05;;;;;;;34.83;5.88;;;5.00;99.90;;;;;;4917767;29;20048;-63
2022/01/20 12:28:31;;;;;;;35.70;4.15;;;4.30;99.90;;;;;;4929483;29;20040;-63
2022/01/20 12:31:01;;;;;;;26.15;3.83;;;3.80;99.90;;;;;;4929555;29;20127;-63
2022/01/20 12:33:30;;;;;;;21.05;3.55;;;3.40;99.90;;;;;;4927594;29;20435;-63
2022/01/20 12:36:02;;;;;;;30.15;4.88;;;3.30;99.90;;;;;;4909771;29;20070;-63
2022/01/20 12:38:37;;;;;;;30.67;4.43;;;3.30;99.90;;;;;;4931063;29;20099;-63
2022/01/20 12:41:09;;;;;;;28.73;3.80;;;3.40;99.90;;;;;;4934454;29;20572;-63
2022/01/20 12:43:39;;;;;;;28.98;4.35;;;3.50;99.90;;;;;;4937279;29;20048;-62
2022/01/20 12:46:07;;;;;;;18.25;3.25;;;3.70;99.90;;;;;;4932808;29;20062;-63
2022/01/20 12:48:33;;;;;;;21.35;3.28;;;3.70;99.90;;;;;;4930823;29;20039;-63
2022/01/20 12:51:05;;;;;;;27.95;5.25;;;3.70;99.90;;;;;;4945105;29;20063;-63
2022/01/20 12:53:54;;;;;;;31.98;4.15;;;3.70;99.90;;;;;;4933312;29;20464;-63
2022/01/20 12:56:32;;;;;;;33.70;6.50;;;3.90;99.90;;;;;;4940599;29;20102;-63
2022/01/20 12:58:58;;;;;;;22.50;4.47;;;4.30;99.90;;;;;;4947906;28;20114;-63
2022/01/20 13:01:24;;;;;;;22.67;5.45;;;4.70;99.90;;;;;;4946232;28;20088;-63
2022/01/20 13:03:51;;;;;;;40.10;6.22;;;4.90;99.90;;;;;;4942196;28;20466;-63
2022/01/20 13:06:25;;;;;;;23.40;4.35;;;5.10;99.90;;;;;;4944563;28;20051;-63
2022/01/20 13:09:03;;;;;;;20.35;3.17;;;5.00;99.90;;;;;;4947714;29;20441;-63
2022/01/20 13:11:32;;;;;;;6.72;1.83;;;4.60;99.90;;;;;;4946880;29;20125;-62
2022/01/20 13:13:58;;;;;;;8.18;1.90;;;4.40;99.90;;;;;;4946786;29;20043;-63
2022/01/20 13:16:24;;;;;;;14.50;2.95;;;4.30;99.90;;;;;;4947716;29;20397;-63
2022/01/20 13:18:54;;;;;;;12.55;2.40;;;4.20;99.90;;;;;;4948138;29;20043;-63
2022/01/20 13:21:25;;;;;;;;;;;4.20;99.90;;;;;;4915452;29;20379;-64
2022/01/20 13:23:57;;;;;;;16.17;3.67;;;4.20;99.90;;;;;;4947659;29;19929;-63
2022/01/20 13:26:25;;;;;;;17.52;3.08;;;4.40;99.90;;;;;;4944013;29;20110;-63
2022/01/20 13:29:05;;;;;;;18.88;2.88;;;4.60;99.90;;;;;;4943998;29;20039;-63
2022/01/20 13:31:32;;;;;;;18.10;3.63;;;5.00;99.90;;;;;;4930885;28;20039;-63
2022/01/20 13:34:08;;;;;;;17.42;3.22;;;5.20;99.90;;;;;;4947459;29;20194;-63
2022/01/20 13:36:38;;;;;;;13.63;2.67;;;5.30;99.90;;;;;;4947663;29;20051;-63
2022/01/20 13:39:04;;;;;;;;;;;4.90;99.90;;;;;;4937978;29;20075;-63
2022/01/20 13:41:29;;;;;;;17.83;2.85;;;4.10;99.90;;;;;;4928248;29;20405;-63
2022/01/20 13:46:47;;;;;;;23.75;4.03;;;3.50;99.90;;;;;;4929532;29;20047;-63
2022/01/20 13:49:17;;;;;;;25.02;3.85;;;3.50;99.90;;;;;;4929985;29;20494;-63
2022/01/20 13:51:44;;;;;;;20.30;3.70;;;3.50;99.90;;;;;;4929248;28;20488;-63
2022/01/20 13:54:10;;;;;;;18.48;2.90;;;3.60;99.90;;;;;;4947030;28;20054;-63
2022/01/20 13:56:37;;;;;;;22.83;3.80;;;3.60;99.90;;;;;;4944757;28;20039;-63
2022/01/20 13:59:04;;;;;;;25.20;4.72;;;3.80;99.90;;;;;;4929374;29;20079;-63
2022/01/20 14:01:29;;;;;;;29.25;3.83;;;3.90;99.90;;;;;;4947116;28;20050;-63
2022/01/20 14:03:55;;;;;;;24.17;4.95;;;4.00;99.90;;;;;;4942918;29;20047;-63
2022/01/20 14:06:21;;;;;;;29.40;4.25;;;4.10;99.90;;;;;;4947021;29;20047;-63
2022/01/20 14:08:48;;;;;;;31.52;4.78;;;4.10;99.90;;;;;;4944100;29;20067;-63
2022/01/20 14:11:15;;;;;;;23.15;3.72;;;3.90;99.90;;;;;;4928690;29;20051;-63
2022/01/20 14:13:41;;;;;;;23.90;4.07;;;3.60;99.90;;;;;;4929059;29;20078;-63
2022/01/20 14:16:07;;;;;;;13.27;2.67;;;3.40;99.90;;;;;;4930308;29;20131;-63